Nearby METAR Reports

 

KMHT - Manchester, New Hampshire, USA
Distance from station: W 16mi, 26km
Updated: Sat, 20-Oct-2018 6:53pm EDT
Few Clouds
Few Clouds
 Wind from SW
Wind: SW 6 mph , 9 km/h
Temperature: 55°F , 13°C
Dew Point: 39°F , 4°C
Humidity: 55%
Barometer: 29.54 inHg , 1000.3 hPa
Clouds: Few Clouds
Visibility: 10 miles , 16 km
Cloud details: Few Clouds 9000 ft
2018/10/20 22:53 KMHT 202253Z 23005KT 10SM FEW090 13/04 A2954 RMK AO2 SLP015 T01330044
KPSM - Portsmouth/Pease, New Hampshire, USA
Distance from station: ENE 17mi, 27km
Updated: Sat, 20-Oct-2018 6:56pm EDT
Few Clouds
Few Clouds
 Wind from SSW
Wind: SSW 5 mph , 7 km/h
Temperature: 54°F , 12°C
Dew Point: 39°F , 4°C
Humidity: 58%
Barometer: 29.52 inHg , 999.7 hPa
Clouds: Few Clouds
Visibility: 10 miles , 16 km
Cloud details: Few Clouds 5000 ft
Few Clouds 10000 ft
2018/10/20 22:56 KPSM 202256Z 20004KT 10SM FEW050 FEW100 12/04 A2952 RMK AO2A SLP999 T01190044
 
KASH - Nashua/Boire Fld, New Hampshire, USA
Distance from station: WSW 24mi, 38km
Updated: Sat, 20-Oct-2018 6:56pm EDT
Partly cloudy
Partly cloudy
 Wind from calm
Wind: Calm
Temperature: 52°F , 11°C
Dew Point: 45°F , 7°C
Humidity: 77%
Barometer: 29.56 inHg , 1001 hPa
Clouds: Partly cloudy
Visibility: 10 miles , 16 km
Cloud details: Partly cloudy 5000 ft
2018/10/20 22:56 KASH 202256Z 00000KT 10SM SCT050 11/07 A2956 RMK AO2 SLP023 T01060072
KDAW - Rochester, New Hampshire, USA
Distance from station: NNE 24mi, 39km
Updated: Sat, 20-Oct-2018 6:51pm EDT
Clear
Clear
 Wind from calm
Wind: Calm
Temperature: 52°F , 11°C
Dew Point: 43°F , 6°C
Humidity: 72%
Barometer: 29.53 inHg , 1000 hPa
Clouds: Clear
Visibility: 10 miles , 16 km
2018/10/20 22:51 KDAW 202251Z AUTO 00000KT 10SM CLR 11/06 A2953 RMK AO2 SLP998 T01110056